sensor_id;sensor_type;location;lat;lon;timestamp;pressure;altitude;pressure_sealevel;temperature;humidity
12973;BME280;6551;51.056;9.466;2023-02-20T00:01:24;98434.94;;;7.74;90.14
12973;BME280;6551;51.056;9.466;2023-02-20T00:03:50;98430.34;;;7.68;89.89
12973;BME280;6551;51.056;9.466;2023-02-20T00:06:16;98428.44;;;7.61;90.01
12973;BME280;6551;51.056;9.466;2023-02-20T00:08:42;98431.19;;;7.68;89.58
12973;BME280;6551;51.056;9.466;2023-02-20T00:11:08;98423.41;;;7.52;90.21
12973;BME280;6551;51.056;9.466;2023-02-20T00:13:34;98421.63;;;7.44;90.67
12973;BME280;6551;51.056;9.466;2023-02-20T00:16:02;98419.72;;;7.53;90.74
12973;BME280;6551;51.056;9.466;2023-02-20T00:18:27;98415.22;;;7.39;90.37
12973;BME280;6551;51.056;9.466;2023-02-20T00:20:53;98416.44;;;7.51;90.46
12973;BME280;6551;51.056;9.466;2023-02-20T00:23:19;98426.13;;;7.44;90.25
12973;BME280;6551;51.056;9.466;2023-02-20T00:25:45;98425.75;;;7.47;90.37
12973;BME280;6551;51.056;9.466;2023-02-20T00:28:11;98412.97;;;7.50;90.22
12973;BME280;6551;51.056;9.466;2023-02-20T00:30:38;98409.41;;;7.43;90.29
12973;BME280;6551;51.056;9.466;2023-02-20T00:33:06;98409.50;;;7.50;90.39
12973;BME280;6551;51.056;9.466;2023-02-20T00:35:33;98405.56;;;7.46;90.29
12973;BME280;6551;51.056;9.466;2023-02-20T00:38:00;98404.72;;;7.31;90.15
12973;BME280;6551;51.056;9.466;2023-02-20T00:40:29;98416.97;;;7.32;90.39
12973;BME280;6551;51.056;9.466;2023-02-20T00:42:56;98412.94;;;7.21;89.78
12973;BME280;6551;51.056;9.466;2023-02-20T00:45:21;98418.47;;;7.12;89.89
12973;BME280;6551;51.056;9.466;2023-02-20T00:47:47;98408.22;;;7.08;88.98
12973;BME280;6551;51.056;9.466;2023-02-20T00:50:15;98405.94;;;7.05;88.86
12973;BME280;6551;51.056;9.466;2023-02-20T00:52:43;98411.34;;;7.12;88.94
12973;BME280;6551;51.056;9.466;2023-02-20T00:55:09;98407.78;;;7.20;88.56
12973;BME280;6551;51.056;9.466;2023-02-20T00:57:35;98399.09;;;7.11;88.13
12973;BME280;6551;51.056;9.466;2023-02-20T01:00:05;98398.81;;;7.06;88.79
12973;BME280;6551;51.056;9.466;2023-02-20T01:02:33;98385.75;;;7.04;89.36
12973;BME280;6551;51.056;9.466;2023-02-20T01:05:00;98391.88;;;7.05;88.69
12973;BME280;6551;51.056;9.466;2023-02-20T01:07:27;98389.41;;;7.03;88.87
12973;BME280;6551;51.056;9.466;2023-02-20T01:09:54;98391.47;;;6.93;89.44
12973;BME280;6551;51.056;9.466;2023-02-20T01:12:20;98386.69;;;6.89;88.27
12973;BME280;6551;51.056;9.466;2023-02-20T01:14:46;98399.50;;;6.85;88.41
12973;BME280;6551;51.056;9.466;2023-02-20T01:17:12;98397.06;;;6.76;87.95
12973;BME280;6551;51.056;9.466;2023-02-20T01:19:40;98394.00;;;6.64;87.78
12973;BME280;6551;51.056;9.466;2023-02-20T01:22:07;98391.53;;;6.63;87.28
12973;BME280;6551;51.056;9.466;2023-02-20T01:24:34;98409.72;;;6.66;86.33
12973;BME280;6551;51.056;9.466;2023-02-20T01:27:02;98404.53;;;6.72;87.26
12973;BME280;6551;51.056;9.466;2023-02-20T01:29:29;98404.94;;;6.61;86.94
12973;BME280;6551;51.056;9.466;2023-02-20T01:31:56;98397.59;;;6.48;86.89
12973;BME280;6551;51.056;9.466;2023-02-20T01:34:22;98396.75;;;6.48;87.74
12973;BME280;6551;51.056;9.466;2023-02-20T01:36:53;98396.81;;;6.40;87.70
12973;BME280;6551;51.056;9.466;2023-02-20T01:39:26;98388.75;;;6.56;88.04
12973;BME280;6551;51.056;9.466;2023-02-20T01:42:02;98384.66;;;6.54;88.34
12973;BME280;6551;51.056;9.466;2023-02-20T01:44:35;98378.66;;;6.60;87.41
12973;BME280;6551;51.056;9.466;2023-02-20T01:47:15;98381.47;;;6.58;87.04
12973;BME280;6551;51.056;9.466;2023-02-20T01:50:00;98370.88;;;6.58;86.93
12973;BME280;6551;51.056;9.466;2023-02-20T01:52:35;98368.19;;;6.43;87.01
12973;BME280;6551;51.056;9.466;2023-02-20T01:55:53;98381.84;;;6.55;87.34
12973;BME280;6551;51.056;9.466;2023-02-20T01:58:16;98379.31;;;6.62;87.99
12973;BME280;6551;51.056;9.466;2023-02-20T02:00:43;98381.94;;;6.62;88.28
12973;BME280;6551;51.056;9.466;2023-02-20T02:03:18;98385.00;;;6.51;88.36
12973;BME280;6551;51.056;9.466;2023-02-20T02:05:50;98397.75;;;6.47;88.88
12973;BME280;6551;51.056;9.466;2023-02-20T02:08:19;98381.22;;;6.45;88.93
12973;BME280;6551;51.056;9.466;2023-02-20T02:11:05;98379.00;;;6.57;87.58
12973;BME280;6551;51.056;9.466;2023-02-20T02:13:34;98366.19;;;6.45;87.50
12973;BME280;6551;51.056;9.466;2023-02-20T02:25:27;98369.88;;;6.06;88.16
12973;BME280;6551;51.056;9.466;2023-02-20T02:34:46;98346.13;;;5.98;87.31
12973;BME280;6551;51.056;9.466;2023-02-20T02:37:33;98346.31;;;5.96;87.64
12973;BME280;6551;51.056;9.466;2023-02-20T02:40:46;98341.72;;;5.90;87.88
12973;BME280;6551;51.056;9.466;2023-02-20T02:43:54;98338.25;;;5.89;88.12
12973;BME280;6551;51.056;9.466;2023-02-20T02:52:00;98322.63;;;5.72;88.60
12973;BME280;6551;51.056;9.466;2023-02-20T02:54:28;98314.50;;;5.73;88.21
12973;BME280;6551;51.056;9.466;2023-02-20T02:57:22;98316.56;;;5.63;89.13
12973;BME280;6551;51.056;9.466;2023-02-20T02:59:53;98331.72;;;5.61;89.06
12973;BME280;6551;51.056;9.466;2023-02-20T03:02:24;98322.66;;;5.56;89.60
12973;BME280;6551;51.056;9.466;2023-02-20T03:04:57;98325.47;;;5.62;89.98
12973;BME280;6551;51.056;9.466;2023-02-20T03:07:25;98321.03;;;5.55;90.22
12973;BME280;6551;51.056;9.466;2023-02-20T03:09:59;98315.09;;;5.61;90.14
12973;BME280;6551;51.056;9.466;2023-02-20T03:12:29;98309.28;;;5.65;89.96
12973;BME280;6551;51.056;9.466;2023-02-20T03:15:07;98293.22;;;5.67;90.03
12973;BME280;6551;51.056;9.466;2023-02-20T03:20:53;98296.59;;;5.61;90.83
12973;BME280;6551;51.056;9.466;2023-02-20T03:23:29;98306.09;;;5.70;90.73
12973;BME280;6551;51.056;9.466;2023-02-20T03:26:04;98294.38;;;5.72;90.66
12973;BME280;6551;51.056;9.466;2023-02-20T03:28:46;98304.78;;;5.74;90.71
12973;BME280;6551;51.056;9.466;2023-02-20T03:31:18;98287.25;;;5.73;90.48
12973;BME280;6551;51.056;9.466;2023-02-20T03:37:17;98286.81;;;6.00;90.29
12973;BME280;6551;51.056;9.466;2023-02-20T03:40:08;98284.66;;;6.04;89.88
12973;BME280;6551;51.056;9.466;2023-02-20T03:43:00;98269.38;;;6.14;90.02
12973;BME280;6551;51.056;9.466;2023-02-20T03:45:46;98274.22;;;6.10;90.13
12973;BME280;6551;51.056;9.466;2023-02-20T03:48:34;98270.75;;;6.10;90.05
12973;BME280;6551;51.056;9.466;2023-02-20T03:51:02;98276.38;;;6.07;90.81
12973;BME280;6551;51.056;9.466;2023-02-20T03:53:30;98273.44;;;6.02;91.07
12973;BME280;6551;51.056;9.466;2023-02-20T03:56:02;98270.16;;;6.00;90.74
12973;BME280;6551;51.056;9.466;2023-02-20T03:58:32;98264.09;;;6.14;89.99
12973;BME280;6551;51.056;9.466;2023-02-20T04:01:01;98283.41;;;6.14;89.83
12973;BME280;6551;51.056;9.466;2023-02-20T04:03:32;98294.13;;;6.21;90.15
12973;BME280;6551;51.056;9.466;2023-02-20T04:06:03;98289.72;;;6.13;90.39
12973;BME280;6551;51.056;9.466;2023-02-20T04:08:43;98267.97;;;6.26;90.32
12973;BME280;6551;51.056;9.466;2023-02-20T04:11:32;98283.84;;;6.26;89.51
12973;BME280;6551;51.056;9.466;2023-02-20T04:14:01;98270.88;;;6.16;90.24
12973;BME280;6551;51.056;9.466;2023-02-20T04:16:31;98274.22;;;6.10;90.92
12973;BME280;6551;51.056;9.466;2023-02-20T04:19:00;98272.50;;;6.17;90.69
12973;BME280;6551;51.056;9.466;2023-02-20T04:21:39;98276.03;;;6.32;90.16
12973;BME280;6551;51.056;9.466;2023-02-20T04:24:11;98275.28;;;6.24;90.33
12973;BME280;6551;51.056;9.466;2023-02-20T04:26:39;98270.50;;;6.19;90.94
12973;BME280;6551;51.056;9.466;2023-02-20T04:29:05;98259.56;;;6.22;90.51
12973;BME280;6551;51.056;9.466;2023-02-20T04:31:31;98268.25;;;6.31;90.01
12973;BME280;6551;51.056;9.466;2023-02-20T04:33:58;98263.16;;;6.29;90.33
12973;BME280;6551;51.056;9.466;2023-02-20T04:36:24;98266.88;;;6.20;90.51
12973;BME280;6551;51.056;9.466;2023-02-20T04:38:50;98271.81;;;6.23;90.50
12973;BME280;6551;51.056;9.466;2023-02-20T04:41:16;98275.16;;;6.17;90.69
12973;BME280;6551;51.056;9.466;2023-02-20T04:43:42;98264.16;;;6.06;91.07
12973;BME280;6551;51.056;9.466;2023-02-20T04:46:09;98261.81;;;6.11;91.18
12973;BME280;6551;51.056;9.466;2023-02-20T04:48:36;98258.69;;;6.07;91.34
12973;BME280;6551;51.056;9.466;2023-02-20T04:51:06;98261.97;;;6.09;91.42
12973;BME280;6551;51.056;9.466;2023-02-20T04:53:32;98256.22;;;6.06;92.13
12973;BME280;6551;51.056;9.466;2023-02-20T04:56:00;98269.22;;;6.15;91.47
12973;BME280;6551;51.056;9.466;2023-02-20T04:58:27;98270.41;;;6.13;91.84
12973;BME280;6551;51.056;9.466;2023-02-20T05:00:53;98275.25;;;6.01;92.13
12973;BME280;6551;51.056;9.466;2023-02-20T05:03:20;98268.16;;;6.02;92.11
12973;BME280;6551;51.056;9.466;2023-02-20T05:05:46;98275.91;;;6.03;92.08
12973;BME280;6551;51.056;9.466;2023-02-20T05:08:13;98261.69;;;6.04;92.45
12973;BME280;6551;51.056;9.466;2023-02-20T05:10:39;98263.03;;;6.00;92.13
12973;BME280;6551;51.056;9.466;2023-02-20T05:13:09;98254.94;;;6.02;92.14
12973;BME280;6551;51.056;9.466;2023-02-20T05:15:35;98231.78;;;6.04;91.98
12973;BME280;6551;51.056;9.466;2023-02-20T05:18:02;98242.00;;;6.07;92.34
12973;BME280;6551;51.056;9.466;2023-02-20T05:20:28;98243.34;;;6.03;92.58
12973;BME280;6551;51.056;9.466;2023-02-20T05:23:13;98232.69;;;6.19;91.91
12973;BME280;6551;51.056;9.466;2023-02-20T05:25:38;98224.22;;;6.01;91.78
12973;BME280;6551;51.056;9.466;2023-02-20T05:28:04;98224.56;;;5.98;92.25
12973;BME280;6551;51.056;9.466;2023-02-20T05:30:30;98224.84;;;6.03;92.79
12973;BME280;6551;51.056;9.466;2023-02-20T05:32:58;98223.28;;;5.94;92.83
12973;BME280;6551;51.056;9.466;2023-02-20T05:35:26;98212.53;;;5.95;92.91
12973;BME280;6551;51.056;9.466;2023-02-20T05:37:53;98212.47;;;6.03;92.70
12973;BME280;6551;51.056;9.466;2023-02-20T05:40:19;98186.44;;;5.92;92.63
12973;BME280;6551;51.056;9.466;2023-02-20T05:42:44;98193.50;;;6.00;93.02
12973;BME280;6551;51.056;9.466;2023-02-20T05:45:10;98207.06;;;5.97;93.13
12973;BME280;6551;51.056;9.466;2023-02-20T05:47:37;98209.38;;;6.00;92.85
12973;BME280;6551;51.056;9.466;2023-02-20T05:50:05;98186.78;;;6.12;92.87
12973;BME280;6551;51.056;9.466;2023-02-20T05:52:33;98186.56;;;5.99;93.04
12973;BME280;6551;51.056;9.466;2023-02-20T05:54:59;98193.19;;;5.95;93.31
12973;BME280;6551;51.056;9.466;2023-02-20T05:57:25;98198.47;;;5.95;93.72
12973;BME280;6551;51.056;9.466;2023-02-20T05:59:54;98193.03;;;5.96;94.09
12973;BME280;6551;51.056;9.466;2023-02-20T06:02:19;98180.22;;;5.85;94.05
12973;BME280;6551;51.056;9.466;2023-02-20T06:04:45;98174.53;;;5.96;93.94
12973;BME280;6551;51.056;9.466;2023-02-20T06:07:11;98191.84;;;5.99;93.39
12973;BME280;6551;51.056;9.466;2023-02-20T06:09:43;98194.66;;;5.97;93.91
12973;BME280;6551;51.056;9.466;2023-02-20T06:12:10;98189.34;;;6.05;93.53
12973;BME280;6551;51.056;9.466;2023-02-20T06:14:37;98205.78;;;6.15;92.99
12973;BME280;6551;51.056;9.466;2023-02-20T06:17:03;98204.81;;;6.08;92.98
12973;BME280;6551;51.056;9.466;2023-02-20T06:19:30;98202.50;;;6.13;92.68
12973;BME280;6551;51.056;9.466;2023-02-20T06:21:57;98190.47;;;6.03;92.37
12973;BME280;6551;51.056;9.466;2023-02-20T06:24:23;98209.53;;;5.98;92.86
12973;BME280;6551;51.056;9.466;2023-02-20T06:26:51;98206.53;;;6.01;92.48
12973;BME280;6551;51.056;9.466;2023-02-20T06:29:17;98188.16;;;6.08;91.98
12973;BME280;6551;51.056;9.466;2023-02-20T06:31:44;98199.31;;;6.18;92.24
12973;BME280;6551;51.056;9.466;2023-02-20T06:34:09;98190.13;;;6.06;91.62
12973;BME280;6551;51.056;9.466;2023-02-20T06:36:38;98182.94;;;6.00;92.00
12973;BME280;6551;51.056;9.466;2023-02-20T06:39:05;98192.63;;;6.07;92.09
12973;BME280;6551;51.056;9.466;2023-02-20T06:41:32;98202.66;;;6.12;91.58
12973;BME280;6551;51.056;9.466;2023-02-20T06:43:58;98204.44;;;5.97;91.93
12973;BME280;6551;51.056;9.466;2023-02-20T06:46:26;98203.34;;;6.06;91.36
12973;BME280;6551;51.056;9.466;2023-02-20T06:48:54;98191.72;;;6.15;91.17
12973;BME280;6551;51.056;9.466;2023-02-20T06:51:29;98189.91;;;6.15;90.77
12973;BME280;6551;51.056;9.466;2023-02-20T06:54:13;98195.75;;;6.11;90.62
12973;BME280;6551;51.056;9.466;2023-02-20T06:56:40;98219.34;;;6.12;90.75
12973;BME280;6551;51.056;9.466;2023-02-20T06:59:06;98196.72;;;6.10;90.63
12973;BME280;6551;51.056;9.466;2023-02-20T07:01:40;98194.44;;;6.07;90.98
12973;BME280;6551;51.056;9.466;2023-02-20T07:04:19;98201.88;;;6.26;90.09
12973;BME280;6551;51.056;9.466;2023-02-20T07:06:45;98182.81;;;6.16;89.62
12973;BME280;6551;51.056;9.466;2023-02-20T07:09:13;98194.41;;;6.29;89.17
12973;BME280;6551;51.056;9.466;2023-02-20T07:11:41;98192.41;;;6.31;89.33
12973;BME280;6551;51.056;9.466;2023-02-20T07:14:09;98196.16;;;6.37;89.15
12973;BME280;6551;51.056;9.466;2023-02-20T07:16:35;98193.50;;;6.37;89.19
12973;BME280;6551;51.056;9.466;2023-02-20T07:19:01;98188.06;;;6.38;89.04
12973;BME280;6551;51.056;9.466;2023-02-20T07:21:29;98175.31;;;6.57;88.54
12973;BME280;6551;51.056;9.466;2023-02-20T07:23:56;98182.63;;;6.55;88.24
12973;BME280;6551;51.056;9.466;2023-02-20T07:26:28;98179.97;;;6.55;87.66
12973;BME280;6551;51.056;9.466;2023-02-20T07:28:56;98176.59;;;6.75;87.34
12973;BME280;6551;51.056;9.466;2023-02-20T07:31:27;98179.25;;;6.90;86.98
12973;BME280;6551;51.056;9.466;2023-02-20T07:33:55;98173.13;;;7.04;86.19
12973;BME280;6551;51.056;9.466;2023-02-20T07:36:40;98174.13;;;7.03;85.81
12973;BME280;6551;51.056;9.466;2023-02-20T07:39:07;98168.09;;;6.94;85.79
12973;BME280;6551;51.056;9.466;2023-02-20T07:41:33;98176.69;;;7.11;85.85
12973;BME280;6551;51.056;9.466;2023-02-20T07:44:02;98177.38;;;7.34;84.87
12973;BME280;6551;51.056;9.466;2023-02-20T07:46:34;98171.94;;;7.57;83.97
12973;BME280;6551;51.056;9.466;2023-02-20T07:49:04;98184.78;;;7.75;83.76
12973;BME280;6551;51.056;9.466;2023-02-20T07:51:31;98172.56;;;7.59;83.80
12973;BME280;6551;51.056;9.466;2023-02-20T07:54:02;98164.84;;;7.43;83.98
12973;BME280;6551;51.056;9.466;2023-02-20T07:56:30;98165.13;;;7.33;85.27
12973;BME280;6551;51.056;9.466;2023-02-20T07:58:58;98159.47;;;7.72;89.18
12973;BME280;6551;51.056;9.466;2023-02-20T08:01:24;98147.41;;;8.95;81.24
12973;BME280;6551;51.056;9.466;2023-02-20T08:03:50;98153.84;;;9.74;76.17
12973;BME280;6551;51.056;9.466;2023-02-20T08:06:30;98140.88;;;8.98;75.62
12973;BME280;6551;51.056;9.466;2023-02-20T08:08:57;98138.88;;;7.95;79.91
12973;BME280;6551;51.056;9.466;2023-02-20T08:11:25;98120.25;;;7.89;83.01
12973;BME280;6551;51.056;9.466;2023-02-20T08:13:51;98140.16;;;8.48;79.35
12973;BME280;6551;51.056;9.466;2023-02-20T08:16:21;98120.66;;;7.86;81.61
12973;BME280;6551;51.056;9.466;2023-02-20T08:18:48;98121.97;;;7.54;83.52
12973;BME280;6551;51.056;9.466;2023-02-20T08:21:14;98116.34;;;7.42;84.70
12973;BME280;6551;51.056;9.466;2023-02-20T08:23:40;98095.97;;;7.22;85.13
12973;BME280;6551;51.056;9.466;2023-02-20T08:26:05;98101.34;;;7.14;85.57
12973;BME280;6551;51.056;9.466;2023-02-20T08:28:33;98107.53;;;7.56;86.00
12973;BME280;6551;51.056;9.466;2023-02-20T08:31:01;98098.31;;;7.74;83.56
12973;BME280;6551;51.056;9.466;2023-02-20T08:33:31;98099.69;;;7.48;84.35
12973;BME280;6551;51.056;9.466;2023-02-20T08:36:00;98112.22;;;7.54;84.49
12973;BME280;6551;51.056;9.466;2023-02-20T08:38:37;98112.00;;;7.56;84.24
12973;BME280;6551;51.056;9.466;2023-02-20T08:41:07;98104.19;;;7.48;84.29
12973;BME280;6551;51.056;9.466;2023-02-20T08:43:36;98099.38;;;7.58;84.08
12973;BME280;6551;51.056;9.466;2023-02-20T08:46:05;98118.13;;;7.56;84.17
12973;BME280;6551;51.056;9.466;2023-02-20T08:48:33;98116.69;;;7.54;84.06
12973;BME280;6551;51.056;9.466;2023-02-20T08:50:59;98114.78;;;7.48;84.15
12973;BME280;6551;51.056;9.466;2023-02-20T08:53:26;98127.66;;;7.51;85.16
12973;BME280;6551;51.056;9.466;2023-02-20T08:55:52;98135.47;;;7.38;85.06
12973;BME280;6551;51.056;9.466;2023-02-20T08:58:21;98136.88;;;7.55;84.46
12973;BME280;6551;51.056;9.466;2023-02-20T09:00:48;98129.94;;;7.54;84.66
12973;BME280;6551;51.056;9.466;2023-02-20T09:03:17;98109.56;;;7.54;84.54
12973;BME280;6551;51.056;9.466;2023-02-20T09:05:43;98112.53;;;7.66;83.73
12973;BME280;6551;51.056;9.466;2023-02-20T09:08:09;98128.47;;;7.73;83.36
12973;BME280;6551;51.056;9.466;2023-02-20T09:10:36;98123.81;;;7.96;83.09
12973;BME280;6551;51.056;9.466;2023-02-20T09:13:03;98117.97;;;8.28;81.08
12973;BME280;6551;51.056;9.466;2023-02-20T09:15:30;98118.41;;;8.59;81.17
12973;BME280;6551;51.056;9.466;2023-02-20T09:18:03;98122.38;;;9.17;78.52
12973;BME280;6551;51.056;9.466;2023-02-20T09:20:32;98128.25;;;9.60;77.11
12973;BME280;6551;51.056;9.466;2023-02-20T09:23:00;98111.28;;;9.81;75.20
12973;BME280;6551;51.056;9.466;2023-02-20T09:25:27;98112.75;;;9.96;74.71
12973;BME280;6551;51.056;9.466;2023-02-20T09:27:54;98092.25;;;9.64;73.34
12973;BME280;6551;51.056;9.466;2023-02-20T09:30:21;98095.66;;;9.38;74.03
12973;BME280;6551;51.056;9.466;2023-02-20T09:32:47;98097.13;;;9.48;75.27
12973;BME280;6551;51.056;9.466;2023-02-20T09:35:21;98101.28;;;9.76;74.05
12973;BME280;6551;51.056;9.466;2023-02-20T09:37:48;98080.00;;;9.83;72.77
12973;BME280;6551;51.056;9.466;2023-02-20T09:40:15;98087.00;;;10.30;72.30
12973;BME280;6551;51.056;9.466;2023-02-20T09:45:33;98085.09;;;10.11;72.37
12973;BME280;6551;51.056;9.466;2023-02-20T09:48:11;98086.59;;;10.26;73.08
12973;BME280;6551;51.056;9.466;2023-02-20T09:50:57;98094.97;;;10.49;71.63
12973;BME280;6551;51.056;9.466;2023-02-20T09:53:34;98088.44;;;10.26;71.68
12973;BME280;6551;51.056;9.466;2023-02-20T09:56:06;98063.03;;;10.10;72.83
12973;BME280;6551;51.056;9.466;2023-02-20T09:58:57;98071.25;;;10.99;70.52
12973;BME280;6551;51.056;9.466;2023-02-20T10:01:25;98078.44;;;10.92;69.57
12973;BME280;6551;51.056;9.466;2023-02-20T10:04:04;98072.44;;;11.09;69.50
12973;BME280;6551;51.056;9.466;2023-02-20T10:06:34;98059.25;;;10.77;70.10
12973;BME280;6551;51.056;9.466;2023-02-20T10:09:02;98070.91;;;10.76;71.04
12973;BME280;6551;51.056;9.466;2023-02-20T10:18:05;98075.19;;;10.90;71.23
12973;BME280;6551;51.056;9.466;2023-02-20T10:36:33;98035.38;;;11.39;70.07
12973;BME280;6551;51.056;9.466;2023-02-20T10:39:12;98054.94;;;11.27;69.64
12973;BME280;6551;51.056;9.466;2023-02-20T10:41:56;98051.72;;;11.11;70.08
12973;BME280;6551;51.056;9.466;2023-02-20T10:47:18;98067.28;;;11.52;68.87
12973;BME280;6551;51.056;9.466;2023-02-20T10:50:00;98053.84;;;11.97;68.28
12973;BME280;6551;51.056;9.466;2023-02-20T10:52:36;98065.25;;;12.10;67.95
12973;BME280;6551;51.056;9.466;2023-02-20T10:57:57;98062.75;;;11.53;68.24
12973;BME280;6551;51.056;9.466;2023-02-20T11:00:55;98057.22;;;11.86;69.01
12973;BME280;6551;51.056;9.466;2023-02-20T11:04:22;98050.16;;;11.98;65.41
12973;BME280;6551;51.056;9.466;2023-02-20T11:06:59;98021.69;;;12.53;64.27
12973;BME280;6551;51.056;9.466;2023-02-20T11:09:27;98042.69;;;12.06;65.36
12973;BME280;6551;51.056;9.466;2023-02-20T11:11:54;98041.28;;;12.04;64.81
12973;BME280;6551;51.056;9.466;2023-02-20T11:14:43;98042.13;;;12.04;64.92
12973;BME280;6551;51.056;9.466;2023-02-20T11:17:15;98035.09;;;12.28;66.18
12973;BME280;6551;51.056;9.466;2023-02-20T11:19:51;98035.13;;;12.64;64.47
12973;BME280;6551;51.056;9.466;2023-02-20T11:25:30;98016.59;;;12.69;62.13
12973;BME280;6551;51.056;9.466;2023-02-20T11:28:25;98014.81;;;12.27;63.26
12973;BME280;6551;51.056;9.466;2023-02-20T11:31:09;98007.47;;;11.66;64.87
12973;BME280;6551;51.056;9.466;2023-02-20T11:33:44;98024.28;;;11.73;65.33
12973;BME280;6551;51.056;9.466;2023-02-20T11:36:17;97990.00;;;12.02;66.43
12973;BME280;6551;51.056;9.466;2023-02-20T11:38:45;98014.44;;;11.74;65.26
12973;BME280;6551;51.056;9.466;2023-02-20T11:41:23;97982.41;;;11.99;63.98
12973;BME280;6551;51.056;9.466;2023-02-20T11:46:37;97965.41;;;11.68;64.95
12973;BME280;6551;51.056;9.466;2023-02-20T11:49:26;97960.13;;;12.29;64.24
12973;BME280;6551;51.056;9.466;2023-02-20T11:52:19;97956.22;;;11.89;64.91
12973;BME280;6551;51.056;9.466;2023-02-20T11:54:46;97949.28;;;11.88;65.68
12973;BME280;6551;51.056;9.466;2023-02-20T11:57:22;97926.91;;;12.07;65.04
12973;BME280;6551;51.056;9.466;2023-02-20T12:00:21;97943.81;;;12.19;65.39
12973;BME280;6551;51.056;9.466;2023-02-20T12:02:56;97941.19;;;12.67;64.41
12973;BME280;6551;51.056;9.466;2023-02-20T12:05:42;97939.91;;;13.00;62.93
12973;BME280;6551;51.056;9.466;2023-02-20T12:11:27;97923.69;;;12.53;64.31
12973;BME280;6551;51.056;9.466;2023-02-20T12:13:57;97915.75;;;12.65;63.38
12973;BME280;6551;51.056;9.466;2023-02-20T12:17:05;97913.97;;;12.88;63.06
12973;BME280;6551;51.056;9.466;2023-02-20T12:20:02;97919.63;;;13.52;61.98
12973;BME280;6551;51.056;9.466;2023-02-20T12:22:37;97918.78;;;13.39;62.73
12973;BME280;6551;51.056;9.466;2023-02-20T12:25:34;97908.34;;;13.38;62.59
12973;BME280;6551;51.056;9.466;2023-02-20T12:31:34;97904.50;;;12.74;64.20
12973;BME280;6551;51.056;9.466;2023-02-20T12:34:25;97910.84;;;12.62;64.51
12973;BME280;6551;51.056;9.466;2023-02-20T12:40:32;97930.28;;;13.28;63.83
12973;BME280;6551;51.056;9.466;2023-02-20T12:49:52;97913.72;;;13.08;64.26
12973;BME280;6551;51.056;9.466;2023-02-20T12:59:04;97903.34;;;13.30;63.96
12973;BME280;6551;51.056;9.466;2023-02-20T13:01:34;97905.06;;;13.24;64.34
12973;BME280;6551;51.056;9.466;2023-02-20T13:08:02;97889.72;;;13.31;64.86
12973;BME280;6551;51.056;9.466;2023-02-20T13:11:03;97904.41;;;13.64;63.36
12973;BME280;6551;51.056;9.466;2023-02-20T13:22:20;97889.47;;;13.21;63.99
12973;BME280;6551;51.056;9.466;2023-02-20T13:24:45;97885.22;;;13.02;63.42
12973;BME280;6551;51.056;9.466;2023-02-20T13:27:29;97877.66;;;13.40;63.04
12973;BME280;6551;51.056;9.466;2023-02-20T13:30:17;97877.41;;;13.77;62.37
12973;BME280;6551;51.056;9.466;2023-02-20T13:32:44;97873.94;;;13.76;61.78
12973;BME280;6551;51.056;9.466;2023-02-20T13:38:15;97876.25;;;13.38;64.30
12973;BME280;6551;51.056;9.466;2023-02-20T13:41:04;97878.47;;;13.41;64.85
12973;BME280;6551;51.056;9.466;2023-02-20T13:43:35;97878.56;;;13.69;64.92
12973;BME280;6551;51.056;9.466;2023-02-20T13:46:14;97875.31;;;13.56;64.43
12973;BME280;6551;51.056;9.466;2023-02-20T13:49:08;97869.97;;;13.32;64.47
12973;BME280;6551;51.056;9.466;2023-02-20T13:51:39;97867.25;;;13.09;64.61
12973;BME280;6551;51.056;9.466;2023-02-20T13:54:21;97872.00;;;13.07;65.09
12973;BME280;6551;51.056;9.466;2023-02-20T13:56:56;97869.72;;;12.93;65.62
12973;BME280;6551;51.056;9.466;2023-02-20T13:59:24;97858.78;;;12.94;66.38
12973;BME280;6551;51.056;9.466;2023-02-20T14:02:20;97857.34;;;12.80;66.79
12973;BME280;6551;51.056;9.466;2023-02-20T14:05:03;97859.00;;;12.81;67.45
12973;BME280;6551;51.056;9.466;2023-02-20T14:07:43;97869.16;;;12.90;67.35
12973;BME280;6551;51.056;9.466;2023-02-20T14:10:33;97866.34;;;12.97;66.95
12973;BME280;6551;51.056;9.466;2023-02-20T14:13:16;97848.59;;;13.03;68.18
12973;BME280;6551;51.056;9.466;2023-02-20T14:16:04;97852.66;;;13.05;67.99
12973;BME280;6551;51.056;9.466;2023-02-20T14:18:47;97852.03;;;13.10;67.31
12973;BME280;6551;51.056;9.466;2023-02-20T14:21:18;97848.88;;;13.13;67.82
12973;BME280;6551;51.056;9.466;2023-02-20T14:23:51;97835.19;;;13.21;67.00
12973;BME280;6551;51.056;9.466;2023-02-20T14:26:30;97839.16;;;13.30;66.96
12973;BME280;6551;51.056;9.466;2023-02-20T14:28:59;97841.69;;;13.48;66.50
12973;BME280;6551;51.056;9.466;2023-02-20T14:31:36;97838.22;;;13.47;66.43
12973;BME280;6551;51.056;9.466;2023-02-20T14:34:16;97831.09;;;13.41;66.83
12973;BME280;6551;51.056;9.466;2023-02-20T14:37:09;97817.38;;;13.49;66.16
12973;BME280;6551;51.056;9.466;2023-02-20T14:40:12;97819.72;;;13.34;66.42
12973;BME280;6551;51.056;9.466;2023-02-20T14:42:44;97818.44;;;13.25;66.94
12973;BME280;6551;51.056;9.466;2023-02-20T14:45:25;97820.88;;;13.27;67.06
12973;BME280;6551;51.056;9.466;2023-02-20T14:50:34;97810.53;;;13.07;66.93
12973;BME280;6551;51.056;9.466;2023-02-20T14:55:43;97813.69;;;12.86;66.88
12973;BME280;6551;51.056;9.466;2023-02-20T14:58:15;97838.06;;;12.78;67.87
12973;BME280;6551;51.056;9.466;2023-02-20T15:00:45;97835.72;;;12.70;67.81
12973;BME280;6551;51.056;9.466;2023-02-20T15:03:25;97826.75;;;12.64;68.33
12973;BME280;6551;51.056;9.466;2023-02-20T15:05:53;97833.38;;;12.62;69.03
12973;BME280;6551;51.056;9.466;2023-02-20T15:08:31;97833.69;;;12.54;68.72
12973;BME280;6551;51.056;9.466;2023-02-20T15:11:09;97825.25;;;12.39;69.38
12973;BME280;6551;51.056;9.466;2023-02-20T15:13:39;97834.78;;;12.35;69.58
12973;BME280;6551;51.056;9.466;2023-02-20T15:18:47;97861.03;;;12.38;70.20
12973;BME280;6551;51.056;9.466;2023-02-20T15:21:29;97856.03;;;12.41;71.11
12973;BME280;6551;51.056;9.466;2023-02-20T15:24:09;97858.72;;;12.41;71.19
12973;BME280;6551;51.056;9.466;2023-02-20T15:26:36;97865.75;;;12.36;71.43
12973;BME280;6551;51.056;9.466;2023-02-20T15:29:24;97863.03;;;12.42;70.75
12973;BME280;6551;51.056;9.466;2023-02-20T15:32:49;97860.03;;;12.50;71.03
12973;BME280;6551;51.056;9.466;2023-02-20T15:34:55;97854.19;;;12.42;70.22
12973;BME280;6551;51.056;9.466;2023-02-20T15:37:32;97883.75;;;12.58;70.36
12973;BME280;6551;51.056;9.466;2023-02-20T15:40:30;97878.22;;;12.60;70.36